Time;durP1;ratioP1;P1;durP2;ratioP2;P2;SDS_P1;SDS_P2;PMS_P1;PMS_P2;Temp;Humidity;BMP_temperature;BMP_pressure;BME280_temperature;BME280_humidity;BME280_pressure;Samples;Min_cycle;Max_cycle;Signal;HPM_P1;HPM_P2
2024/01/06 00:02:05;;;;;;;10.87;1.97;;;;;2.70;92776.00;;;;7400814;19;20132;-81
2024/01/06 00:04:33;;;;;;;8.90;2.27;;;;;2.60;92767.00;;;;7400368;19;20129;-79
2024/01/06 00:07:09;;;;;;;5.03;2.27;;;;;2.50;92763.00;;;;7399486;19;20137;-80
2024/01/06 00:09:44;;;;;;;5.30;2.23;;;;;2.50;92772.00;;;;7400580;19;20129;-80
2024/01/06 00:12:25;;;;;;;9.53;2.10;;;;;2.50;92771.00;;;;7399359;19;20151;-83
2024/01/06 00:14:52;;;;;;;3.40;2.17;;;;;2.60;92776.00;;;;7399928;19;20129;-82
2024/01/06 00:17:26;;;;;;;7.20;2.37;;;;;2.40;92770.00;;;;7395816;19;20156;-80
2024/01/06 00:20:02;;;;;;;6.13;2.37;;;;;2.50;92781.00;;;;7399763;19;20136;-79
2024/01/06 00:22:36;;;;;;;4.37;1.83;;;;;2.30;92766.00;;;;7401384;19;20144;-80
2024/01/06 00:25:04;;;;;;;5.60;2.23;;;;;2.30;92765.00;;;;7399605;19;20143;-79
2024/01/06 00:27:39;;;;;;;7.37;2.23;;;;;2.40;92772.00;;;;7398513;19;20148;-78
2024/01/06 00:30:13;;;;;;;5.50;2.20;;;;;2.30;92769.00;;;;7399124;19;20564;-79
2024/01/06 00:32:48;;;;;;;5.83;2.07;;;;;2.40;92771.00;;;;7400883;19;20146;-79
2024/01/06 00:35:21;;;;;;;4.00;1.80;;;;;2.40;92770.00;;;;7398103;19;20155;-80
2024/01/06 00:37:55;;;;;;;9.87;2.27;;;;;2.40;92773.00;;;;7398448;19;20144;-80
2024/01/06 00:40:29;;;;;;;5.60;2.23;;;;;2.50;92771.00;;;;7400400;19;20592;-80
2024/01/06 00:42:57;;;;;;;6.33;2.60;;;;;2.60;92781.00;;;;7398073;19;20176;-80
2024/01/06 00:45:31;;;;;;;14.00;3.20;;;;;2.50;92782.00;;;;7398504;19;20163;-81
2024/01/06 00:48:06;;;;;;;6.10;2.07;;;;;2.50;92785.00;;;;7398837;19;20137;-80
2024/01/06 00:50:41;;;;;;;9.23;2.10;;;;;2.50;92780.00;;;;7398718;19;20709;-79
2024/01/06 00:53:15;;;;;;;6.90;2.50;;;;;2.50;92788.00;;;;7402153;19;20178;-84
2024/01/06 00:55:49;;;;;;;4.73;2.30;;;;;2.50;92783.00;;;;7406538;19;20147;-83
2024/01/06 00:58:23;;;;;;;6.97;2.50;;;;;2.40;92780.00;;;;7405747;19;20141;-85
2024/01/06 01:00:57;;;;;;;6.27;2.40;;;;;2.50;92791.00;;;;7402566;19;20141;-84
2024/01/06 01:03:32;;;;;;;7.70;2.10;;;;;2.50;92795.00;;;;7407580;19;20145;-84
2024/01/06 01:06:00;;;;;;;5.73;2.30;;;;;2.50;92805.00;;;;7406200;19;20141;-84
2024/01/06 01:08:33;;;;;;;4.33;2.00;;;;;2.40;92816.00;;;;7406092;19;20137;-84
2024/01/06 01:11:07;;;;;;;6.23;2.10;;;;;2.70;92811.00;;;;7404299;19;20164;-84
2024/01/06 01:13:41;;;;;;;10.17;2.27;;;;;2.70;92804.00;;;;7405134;19;20129;-84
2024/01/06 01:16:09;;;;;;;6.73;2.10;;;;;2.80;92807.00;;;;7405301;19;20137;-83
2024/01/06 01:18:43;;;;;;;4.33;1.90;;;;;2.70;92804.00;;;;7406355;19;20132;-86
2024/01/06 01:21:11;;;;;;;9.07;1.90;;;;;2.60;92816.00;;;;7405664;19;20173;-85
2024/01/06 01:23:39;;;;;;;10.37;2.10;;;;;2.60;92818.00;;;;7402936;19;20137;-84
2024/01/06 01:26:14;;;;;;;4.37;2.00;;;;;2.60;92821.00;;;;7398087;19;20124;-85
2024/01/06 01:28:48;;;;;;;7.47;1.90;;;;;2.70;92828.00;;;;7404272;19;20137;-85
2024/01/06 01:31:15;;;;;;;7.77;2.00;;;;;2.80;92819.00;;;;7401353;19;20168;-85
2024/01/06 01:33:50;;;;;;;5.03;2.00;;;;;2.70;92826.00;;;;7402619;19;20128;-85
2024/01/06 01:36:18;;;;;;;5.07;1.83;;;;;2.70;92829.00;;;;7404980;19;20137;-85
2024/01/06 01:38:52;;;;;;;5.80;1.67;;;;;2.60;92844.00;;;;7402772;19;20139;-84
2024/01/06 01:41:20;;;;;;;3.87;1.97;;;;;2.60;92840.00;;;;7404410;19;20137;-84
2024/01/06 01:43:58;;;;;;;6.17;1.93;;;;;2.50;92844.00;;;;7399650;19;20148;-85
2024/01/06 01:46:30;;;;;;;7.23;2.10;;;;;2.60;92833.00;;;;7401767;19;20141;-83
2024/01/06 01:49:05;;;;;;;6.27;1.80;;;;;2.50;92847.00;;;;7401740;19;20628;-84
2024/01/06 01:51:35;;;;;;;4.60;1.83;;;;;2.50;92844.00;;;;7401268;19;20641;-85
2024/01/06 01:54:09;;;;;;;8.43;1.97;;;;;2.60;92850.00;;;;7401805;19;20129;-84
2024/01/06 01:56:43;;;;;;;6.83;1.80;;;;;2.60;92853.00;;;;7400084;19;20149;-83
2024/01/06 01:59:19;;;;;;;5.30;1.70;;;;;2.50;92851.00;;;;7398936;19;20505;-84
2024/01/06 02:01:49;;;;;;;6.43;1.73;;;;;2.60;92856.00;;;;7400032;19;20185;-79
2024/01/06 02:04:24;;;;;;;3.87;1.80;;;;;2.60;92858.00;;;;7395935;19;20196;-79
2024/01/06 02:06:51;;;;;;;8.10;1.37;;;;;2.50;92853.00;;;;7401069;19;20148;-79
2024/01/06 02:09:29;;;;;;;5.27;1.70;;;;;2.60;92859.00;;;;7402601;19;20595;-79
2024/01/06 02:12:04;;;;;;;6.10;1.97;;;;;2.50;92855.00;;;;7400113;19;20161;-81
2024/01/06 02:14:39;;;;;;;8.37;1.70;;;;;2.50;92860.00;;;;7401338;19;20129;-79
2024/01/06 02:17:06;;;;;;;4.57;1.67;;;;;2.50;92867.00;;;;7402685;19;20628;-78
2024/01/06 02:19:40;;;;;;;4.93;1.80;;;;;2.50;92876.00;;;;7402756;19;20481;-78
2024/01/06 02:22:08;;;;;;;4.17;1.60;;;;;2.50;92883.00;;;;7402794;19;20149;-81
2024/01/06 02:24:42;;;;;;;2.27;1.40;;;;;2.70;92876.00;;;;7403908;19;20216;-78
2024/01/06 02:27:10;;;;;;;4.80;1.87;;;;;2.50;92872.00;;;;7402858;19;20491;-79
2024/01/06 02:29:45;;;;;;;5.70;2.17;;;;;2.50;92868.00;;;;7404936;19;20643;-80
2024/01/06 02:32:12;;;;;;;5.20;1.73;;;;;2.70;92870.00;;;;7400965;19;20144;-80
2024/01/06 02:34:46;;;;;;;4.40;1.80;;;;;2.50;92874.00;;;;7401715;19;20149;-79
2024/01/06 02:37:14;;;;;;;5.57;1.93;;;;;2.60;92884.00;;;;7401541;19;20149;-81
2024/01/06 02:39:49;;;;;;;6.23;1.53;;;;;2.60;92880.00;;;;7400739;19;20145;-81
2024/01/06 02:42:24;;;;;;;4.73;1.60;;;;;2.50;92880.00;;;;7401214;19;20628;-78
2024/01/06 02:44:58;;;;;;;3.73;1.60;;;;;2.40;92873.00;;;;7402234;19;20474;-79
2024/01/06 02:47:26;;;;;;;7.17;1.60;;;;;2.40;92878.00;;;;7402798;19;20143;-82
2024/01/06 02:50:00;;;;;;;4.07;1.50;;;;;2.20;92874.00;;;;7401378;19;20624;-79
2024/01/06 02:52:28;;;;;;;3.73;1.67;;;;;2.30;92876.00;;;;7402906;19;20681;-80
2024/01/06 02:55:02;;;;;;;5.13;1.53;;;;;2.30;92879.00;;;;7404243;19;20159;-79
2024/01/06 02:57:37;;;;;;;4.50;1.30;;;;;2.40;92878.00;;;;7403249;19;20588;-81
2024/01/06 03:00:12;;;;;;;3.60;1.17;;;;;2.40;92875.00;;;;7401228;19;20133;-80
2024/01/06 03:02:42;;;;;;;8.67;1.77;;;;;2.40;92879.00;;;;7402384;19;20156;-80
2024/01/06 03:05:17;;;;;;;5.20;1.40;;;;;2.40;92880.00;;;;7402189;19;20136;-79
2024/01/06 03:07:45;;;;;;;6.77;1.97;;;;;2.50;92887.00;;;;7403870;19;20141;-80
2024/01/06 03:10:20;;;;;;;3.43;1.33;;;;;2.60;92890.00;;;;7400916;19;20168;-80
2024/01/06 03:12:54;;;;;;;7.57;1.60;;;;;2.50;92886.00;;;;7409289;19;20148;-84
2024/01/06 03:15:28;;;;;;;4.40;1.47;;;;;2.50;92878.00;;;;7410332;19;20599;-84
2024/01/06 03:18:03;;;;;;;3.93;1.60;;;;;2.60;92875.00;;;;7411191;19;20481;-83
2024/01/06 03:20:30;;;;;;;4.27;1.53;;;;;2.50;92876.00;;;;7409924;19;20141;-85
2024/01/06 03:23:04;;;;;;;5.17;1.80;;;;;2.50;92874.00;;;;7413570;19;20148;-86
2024/01/06 03:25:38;;;;;;;2.93;1.27;;;;;2.40;92873.00;;;;7410265;19;20155;-85
2024/01/06 03:28:12;;;;;;;4.30;1.60;;;;;2.40;92878.00;;;;7411022;19;20164;-84
2024/01/06 03:30:40;;;;;;;3.40;1.40;;;;;2.50;92877.00;;;;7412063;19;20144;-84
2024/01/06 03:33:14;;;;;;;5.00;1.40;;;;;2.30;92882.00;;;;7410905;19;20471;-85
2024/01/06 03:35:49;;;;;;;4.03;1.63;;;;;2.40;92871.00;;;;7411652;19;20603;-82
2024/01/06 03:38:16;;;;;;;6.63;1.33;;;;;2.40;92869.00;;;;7410696;19;20442;-84
2024/01/06 03:40:50;;;;;;;5.50;1.57;;;;;2.30;92876.00;;;;7412193;19;20148;-85
2024/01/06 03:43:24;;;;;;;7.40;1.43;;;;;2.20;92867.00;;;;7410193;19;20179;-85
2024/01/06 03:46:00;;;;;;;4.57;1.50;;;;;2.30;92875.00;;;;7410666;19;20208;-85
2024/01/06 03:48:33;;;;;;;3.43;1.70;;;;;2.50;92869.00;;;;7408958;19;20484;-86
2024/01/06 03:51:09;;;;;;;4.87;1.40;;;;;2.20;92866.00;;;;7409238;19;20137;-86
2024/01/06 03:53:37;;;;;;;4.33;1.60;;;;;2.30;92870.00;;;;7407225;19;20140;-85
2024/01/06 03:56:14;;;;;;;2.97;1.80;;;;;2.30;92866.00;;;;7409680;19;20475;-85
2024/01/06 03:58:48;;;;;;;4.53;1.63;;;;;2.30;92862.00;;;;7408707;19;20192;-84
2024/01/06 04:01:16;;;;;;;6.83;1.77;;;;;2.10;92863.00;;;;7409695;19;20137;-84
2024/01/06 04:03:50;;;;;;;5.40;1.97;;;;;2.30;92873.00;;;;7409829;19;20137;-84
2024/01/06 04:06:25;;;;;;;7.23;1.60;;;;;2.20;92878.00;;;;7410499;19;20519;-84
2024/01/06 04:09:01;;;;;;;4.30;1.67;;;;;2.20;92873.00;;;;7407295;19;20137;-84
2024/01/06 04:11:36;;;;;;;2.57;1.43;;;;;2.30;92865.00;;;;7403162;19;20659;-84
2024/01/06 04:14:11;;;;;;;2.93;1.80;;;;;2.20;92862.00;;;;7407634;19;20152;-85
2024/01/06 04:16:39;;;;;;;7.40;1.80;;;;;2.40;92862.00;;;;7405989;19;20150;-86
2024/01/06 04:19:13;;;;;;;5.70;1.83;;;;;2.20;92861.00;;;;7408103;19;20148;-84
2024/01/06 04:21:41;;;;;;;4.50;1.50;;;;;2.20;92860.00;;;;7408277;19;20666;-80
2024/01/06 04:24:16;;;;;;;3.27;1.90;;;;;2.20;92861.00;;;;7400986;19;20140;-80
2024/01/06 04:26:50;;;;;;;4.33;1.33;;;;;2.30;92864.00;;;;7401051;19;20144;-81
2024/01/06 04:29:25;;;;;;;4.27;1.50;;;;;2.20;92864.00;;;;7399398;19;20508;-81
2024/01/06 04:32:00;;;;;;;5.00;1.83;;;;;2.20;92858.00;;;;7400425;19;20500;-80
2024/01/06 04:34:27;;;;;;;6.87;1.70;;;;;2.40;92870.00;;;;7399501;19;20164;-81
2024/01/06 04:36:55;;;;;;;4.90;1.60;;;;;2.30;92879.00;;;;7399451;19;20148;-81
2024/01/06 04:39:29;;;;;;;5.00;1.83;;;;;2.50;92874.00;;;;7399894;19;20207;-81
2024/01/06 04:42:05;;;;;;;5.27;1.67;;;;;2.50;92869.00;;;;7400164;19;20290;-79
2024/01/06 04:44:40;;;;;;;7.43;1.80;;;;;2.30;92872.00;;;;7400355;19;20141;-79
2024/01/06 04:47:13;;;;;;;2.87;1.80;;;;;2.40;92873.00;;;;7399835;19;20168;-80
2024/01/06 04:49:47;;;;;;;3.93;1.60;;;;;2.10;92872.00;;;;7399124;19;20132;-81
2024/01/06 04:52:22;;;;;;;2.33;1.60;;;;;2.20;92889.00;;;;7400056;19;20129;-81
2024/01/06 04:54:56;;;;;;;4.97;1.87;;;;;2.20;92883.00;;;;7400119;19;20140;-81
2024/01/06 04:57:30;;;;;;;3.87;1.53;;;;;2.20;92896.00;;;;7400448;19;20141;-81
2024/01/06 04:59:59;;;;;;;3.20;1.80;;;;;1.90;92883.00;;;;7399768;19;20165;-80
2024/01/06 05:02:35;;;;;;;6.37;2.00;;;;;1.80;92872.00;;;;7400496;19;20132;-81
2024/01/06 05:05:03;;;;;;;4.63;1.87;;;;;1.90;92875.00;;;;7398018;19;20149;-81
2024/01/06 05:07:38;;;;;;;4.33;1.70;;;;;2.00;92873.00;;;;7399672;19;20140;-80
2024/01/06 05:10:11;;;;;;;2.00;1.70;;;;;2.00;92869.00;;;;7399547;19;20143;-80
2024/01/06 05:12:52;;;;;;;2.90;1.60;;;;;2.10;92875.00;;;;7396439;19;20184;-81
2024/01/06 05:15:20;;;;;;;5.10;1.87;;;;;2.00;92874.00;;;;7397988;19;20546;-79
2024/01/06 05:17:54;;;;;;;3.80;2.00;;;;;2.10;92878.00;;;;7400204;19;20196;-82
2024/01/06 05:20:22;;;;;;;4.13;1.90;;;;;2.10;92870.00;;;;7398044;19;20151;-80
2024/01/06 05:22:59;;;;;;;4.13;1.80;;;;;2.10;92868.00;;;;7395927;19;20145;-78
2024/01/06 05:25:27;;;;;;;4.07;1.80;;;;;2.10;92875.00;;;;7397917;19;20600;-77
2024/01/06 05:28:02;;;;;;;2.73;1.67;;;;;1.80;92881.00;;;;7386369;19;20129;-80
2024/01/06 05:30:37;;;;;;;6.17;1.93;;;;;2.10;92882.00;;;;7388015;19;20200;-78
2024/01/06 05:33:13;;;;;;;3.27;1.97;;;;;2.10;92878.00;;;;7388991;19;20148;-78
2024/01/06 05:35:47;;;;;;;5.23;2.30;;;;;2.00;92879.00;;;;7390917;19;20662;-82
2024/01/06 05:38:20;;;;;;;1.90;1.53;;;;;2.10;92881.00;;;;7392176;19;20129;-77
2024/01/06 05:40:54;;;;;;;1.90;1.50;;;;;2.00;92884.00;;;;7398007;19;20156;-79
2024/01/06 05:43:28;;;;;;;4.83;1.80;;;;;2.00;92897.00;;;;7394662;19;20180;-81
2024/01/06 05:46:02;;;;;;;3.70;1.70;;;;;2.10;92889.00;;;;7395558;19;20203;-79
2024/01/06 05:48:37;;;;;;;4.73;1.60;;;;;2.10;92902.00;;;;7395421;19;20216;-79
2024/01/06 05:51:05;;;;;;;6.03;1.60;;;;;2.10;92909.00;;;;7396502;19;20129;-81
2024/01/06 05:53:41;;;;;;;2.30;1.50;;;;;2.30;92915.00;;;;7395726;19;20152;-82
2024/01/06 05:56:26;;;;;;;2.10;1.30;;;;;2.00;92921.00;;;;7396805;19;20133;-80
2024/01/06 05:58:59;;;;;;;4.43;1.70;;;;;1.70;92926.00;;;;7397039;19;20152;-79
2024/01/06 06:01:27;;;;;;;3.07;1.60;;;;;1.80;92924.00;;;;7395189;19;20159;-79
2024/01/06 06:04:02;;;;;;;5.37;1.40;;;;;2.00;92925.00;;;;7395182;19;20144;-80
2024/01/06 06:06:37;;;;;;;1.53;1.37;;;;;2.00;92922.00;;;;7395177;19;20151;-79
2024/01/06 06:09:12;;;;;;;1.87;1.40;;;;;1.80;92916.00;;;;7395309;19;20529;-80
2024/01/06 06:11:47;;;;;;;3.83;1.57;;;;;1.80;92932.00;;;;7397037;19;20501;-79
2024/01/06 06:14:22;;;;;;;2.13;1.30;;;;;1.80;92938.00;;;;7397917;19;20144;-80
2024/01/06 06:16:53;;;;;;;2.10;1.17;;;;;1.90;92934.00;;;;7395967;19;20161;-82
2024/01/06 06:19:28;;;;;;;3.80;1.60;;;;;2.10;92932.00;;;;7393955;19;20140;-80
2024/01/06 06:22:03;;;;;;;3.67;1.47;;;;;2.10;92942.00;;;;7396394;19;21483;-80
2024/01/06 06:24:38;;;;;;;2.47;1.30;;;;;1.80;92945.00;;;;7398032;19;20129;-81
2024/01/06 06:27:12;;;;;;;3.17;1.43;;;;;1.90;92947.00;;;;7397995;19;20158;-80
2024/01/06 06:29:46;;;;;;;2.53;1.43;;;;;1.90;92946.00;;;;7397118;19;20212;-79
2024/01/06 06:32:14;;;;;;;3.53;1.30;;;;;1.90;92963.00;;;;7396173;19;20506;-79
2024/01/06 06:34:49;;;;;;;1.40;1.30;;;;;2.10;92967.00;;;;7395921;19;20185;-80
2024/01/06 06:37:25;;;;;;;1.40;1.30;;;;;2.10;92976.00;;;;7397185;19;20144;-80
2024/01/06 06:40:00;;;;;;;3.97;1.20;;;;;1.90;92975.00;;;;7395528;19;20164;-80
2024/01/06 06:42:30;;;;;;;1.10;1.00;;;;;2.10;92976.00;;;;7396129;19;20176;-78
2024/01/06 06:45:05;;;;;;;2.43;1.20;;;;;2.10;92973.00;;;;7395924;19;20258;-81
2024/01/06 06:47:44;;;;;;;3.63;1.57;;;;;2.30;92979.00;;;;7395279;19;20615;-79
2024/01/06 06:50:20;;;;;;;1.63;1.40;;;;;2.20;92986.00;;;;7395595;19;20216;-80
2024/01/06 06:52:48;;;;;;;1.47;1.10;;;;;2.20;92991.00;;;;7395427;19;20157;-80
2024/01/06 06:55:23;;;;;;;3.70;1.37;;;;;1.90;92992.00;;;;7397319;19;20156;-81
2024/01/06 06:57:52;;;;;;;3.73;1.23;;;;;2.20;92990.00;;;;7397271;19;20597;-80
2024/01/06 07:00:26;;;;;;;2.00;1.27;;;;;1.90;92995.00;;;;7397626;19;20132;-79
2024/01/06 07:02:54;;;;;;;3.53;1.37;;;;;2.20;93002.00;;;;7395571;19;20148;-80
2024/01/06 07:05:24;;;;;;;2.30;1.20;;;;;2.00;92996.00;;;;7396470;19;20132;-80
2024/01/06 07:08:02;;;;;;;4.20;1.20;;;;;2.10;92997.00;;;;7397342;19;20148;-80
2024/01/06 07:10:30;;;;;;;3.53;1.67;;;;;2.00;92996.00;;;;7397385;19;20147;-79
2024/01/06 07:13:05;;;;;;;1.83;1.07;;;;;2.10;93005.00;;;;7398973;19;20148;-79
2024/01/06 07:15:33;;;;;;;3.77;1.30;;;;;2.00;93007.00;;;;7396151;19;20153;-79
2024/01/06 07:18:07;;;;;;;1.73;1.10;;;;;2.20;93006.00;;;;7395317;19;20506;-79
2024/01/06 07:20:35;;;;;;;1.13;1.03;;;;;2.20;93014.00;;;;7394998;19;20152;-79
2024/01/06 07:23:10;;;;;;;2.10;1.33;;;;;2.10;93017.00;;;;7396914;19;20152;-79
2024/01/06 07:25:39;;;;;;;3.37;2.17;;;;;2.40;93016.00;;;;7397756;19;20163;-81
2024/01/06 07:28:14;;;;;;;1.40;1.30;;;;;2.10;93006.00;;;;7397220;19;20156;-77
2024/01/06 07:30:50;;;;;;;2.30;1.40;;;;;2.30;93003.00;;;;7395032;19;20148;-79
2024/01/06 07:33:18;;;;;;;3.60;3.30;;;;;2.30;93007.00;;;;7396612;19;20149;-80
2024/01/06 07:35:53;;;;;;;1.97;1.77;;;;;2.30;93010.00;;;;7397702;19;20157;-81
2024/01/06 07:38:21;;;;;;;2.73;1.17;;;;;2.10;93024.00;;;;7396253;19;20212;-78
2024/01/06 07:40:56;;;;;;;3.27;2.03;;;;;2.20;93011.00;;;;7397585;19;20137;-80
2024/01/06 07:43:31;;;;;;;1.10;1.00;;;;;2.20;93016.00;;;;7395292;19;20183;-80
2024/01/06 07:46:06;;;;;;;1.50;1.13;;;;;2.00;93023.00;;;;7398623;19;20144;-80
2024/01/06 07:48:35;;;;;;;2.67;1.60;;;;;2.30;93026.00;;;;7396717;19;20161;-80
2024/01/06 07:51:04;;;;;;;1.30;1.20;;;;;2.30;93034.00;;;;7397891;19;20496;-80
2024/01/06 07:53:39;;;;;;;1.10;1.00;;;;;2.40;93036.00;;;;7399710;19;20144;-83
2024/01/06 07:56:08;;;;;;;2.30;1.10;;;;;2.30;93033.00;;;;7395976;19;20129;-82
2024/01/06 07:58:36;;;;;;;2.73;1.30;;;;;2.40;93036.00;;;;7393078;19;20145;-83
2024/01/06 08:01:11;;;;;;;2.27;1.30;;;;;2.50;93037.00;;;;7392635;19;20490;-81
2024/01/06 08:03:39;;;;;;;2.27;1.47;;;;;2.60;93032.00;;;;7392670;19;20151;-83
2024/01/06 08:06:13;;;;;;;4.57;2.00;;;;;2.60;93038.00;;;;7394787;19;20623;-83
2024/01/06 08:08:41;;;;;;;1.23;1.03;;;;;2.40;93040.00;;;;7394424;19;20600;-83
2024/01/06 08:11:29;;;;;;;18.30;15.13;;;;;2.50;93037.00;;;;7393569;19;21271;-83
2024/01/06 08:14:04;;;;;;;1.60;1.10;;;;;2.50;93038.00;;;;7393053;19;20125;-84
2024/01/06 08:16:39;;;;;;;2.70;1.60;;;;;2.50;93031.00;;;;7391720;19;20148;-83
2024/01/06 08:19:19;;;;;;;1.20;1.10;;;;;2.40;93032.00;;;;7391147;19;20144;-83
2024/01/06 08:21:54;;;;;;;1.80;0.80;;;;;2.30;93026.00;;;;7394353;19;20538;-82
2024/01/06 08:24:29;;;;;;;2.33;2.10;;;;;2.50;93035.00;;;;7391434;19;20152;-82
2024/01/06 08:27:03;;;;;;;11.13;6.43;;;;;2.50;93036.00;;;;7396470;19;20128;-80
2024/01/06 08:29:32;;;;;;;3.70;2.63;;;;;2.60;93035.00;;;;7392970;19;20152;-83
2024/01/06 08:32:07;;;;;;;5.43;4.20;;;;;2.30;93044.00;;;;7392513;19;20144;-83
2024/01/06 08:34:35;;;;;;;8.17;6.03;;;;;2.30;93040.00;;;;7390661;19;20140;-82
2024/01/06 08:37:10;;;;;;;2.03;1.80;;;;;2.50;93049.00;;;;7392232;19;20147;-82
2024/01/06 08:39:44;;;;;;;5.37;3.80;;;;;2.50;93041.00;;;;7393890;19;20596;-83
2024/01/06 08:42:11;;;;;;;3.57;2.60;;;;;2.30;93051.00;;;;7393051;19;20187;-84
2024/01/06 08:44:46;;;;;;;2.40;2.00;;;;;2.60;93050.00;;;;7396184;19;20171;-83
2024/01/06 08:47:13;;;;;;;1.60;1.17;;;;;2.70;93048.00;;;;7394284;19;20141;-82
2024/01/06 08:49:47;;;;;;;5.50;4.67;;;;;2.50;93059.00;;;;7393832;19;20149;-82
2024/01/06 08:52:16;;;;;;;3.93;3.13;;;;;2.50;93053.00;;;;7391159;19;20535;-83
2024/01/06 08:54:51;;;;;;;8.93;4.63;;;;;2.50;93062.00;;;;7391556;19;20148;-82
2024/01/06 08:57:26;;;;;;;23.03;12.03;;;;;2.60;93054.00;;;;7391624;19;20580;-82
2024/01/06 09:00:01;;;;;;;16.70;6.50;;;;;2.50;93060.00;;;;7392219;19;20567;-82
2024/01/06 09:02:29;;;;;;;3.37;2.17;;;;;2.50;93065.00;;;;7392407;19;20148;-80
2024/01/06 09:05:04;;;;;;;6.73;2.77;;;;;2.40;93070.00;;;;7390593;19;20188;-79
2024/01/06 09:07:34;;;;;;;2.13;1.47;;;;;2.10;93053.00;;;;7380044;19;20133;-80
2024/01/06 09:10:04;;;;;;;24.23;11.07;;;;;2.30;93073.00;;;;7390147;19;20212;-80
2024/01/06 09:12:48;;;;;;;6.77;3.47;;;;;2.20;93071.00;;;;7389728;19;20667;-79
2024/01/06 09:15:16;;;;;;;3.27;2.90;;;;;2.30;93067.00;;;;7387997;19;20144;-80
2024/01/06 09:17:53;;;;;;;1.93;1.23;;;;;2.40;93075.00;;;;7390395;19;20155;-81
2024/01/06 09:20:23;;;;;;;1.40;0.90;;;;;2.30;93072.00;;;;7390257;19;20151;-80
2024/01/06 09:22:56;;;;;;;1.17;1.03;;;;;2.30;93071.00;;;;7389208;19;20141;-80
2024/01/06 09:25:31;;;;;;;2.03;1.07;;;;;2.50;93065.00;;;;7387386;19;20185;-83
2024/01/06 09:28:06;;;;;;;0.93;0.93;;;;;2.60;93067.00;;;;7388390;19;20157;-81
2024/01/06 09:30:40;;;;;;;1.67;0.90;;;;;3.20;93066.00;;;;7390630;19;20163;-84
2024/01/06 09:33:09;;;;;;;1.40;0.70;;;;;2.50;93084.00;;;;7392488;19;20143;-83
2024/01/06 09:35:37;;;;;;;0.80;0.80;;;;;2.80;93085.00;;;;7391240;19;21046;-83
2024/01/06 09:38:13;;;;;;;0.73;0.60;;;;;2.90;93079.00;;;;7391884;19;20152;-84
2024/01/06 09:40:48;;;;;;;2.43;0.80;;;;;2.90;93086.00;;;;7392437;19;20192;-82
2024/01/06 09:43:19;;;;;;;0.80;0.80;;;;;2.80;93088.00;;;;7374683;19;20176;-82
2024/01/06 09:46:10;;;;;;;0.97;0.97;;;;;2.90;93086.00;;;;7376089;19;20164;-84
2024/01/06 09:48:47;;;;;;;2.13;0.90;;;;;3.00;93091.00;;;;7371943;19;20166;-81
2024/01/06 09:51:23;;;;;;;2.23;1.70;;;;;3.00;93107.00;;;;7372121;19;20128;-81
2024/01/06 09:53:59;;;;;;;3.00;2.37;;;;;2.80;93104.00;;;;7373923;19;20254;-81
2024/01/06 09:56:34;;;;;;;1.70;1.27;;;;;2.80;93102.00;;;;7375226;19;20160;-83
2024/01/06 09:59:11;;;;;;;1.20;1.00;;;;;2.70;93095.00;;;;7373481;19;20163;-83
2024/01/06 10:01:39;;;;;;;0.67;0.67;;;;;2.60;93099.00;;;;7373505;19;20145;-83
2024/01/06 10:04:14;;;;;;;0.80;0.73;;;;;2.80;93102.00;;;;7373365;19;20615;-82
2024/01/06 10:06:48;;;;;;;1.00;0.70;;;;;2.80;93092.00;;;;7372501;19;20127;-82
2024/01/06 10:09:28;;;;;;;0.90;0.90;;;;;2.90;93101.00;;;;7371409;19;20129;-81
2024/01/06 10:12:08;;;;;;;0.77;0.70;;;;;3.00;93109.00;;;;7372829;19;20160;-81
2024/01/06 10:14:44;;;;;;;2.63;0.97;;;;;3.00;93109.00;;;;7375396;19;20137;-81
2024/01/06 10:17:21;;;;;;;1.40;0.90;;;;;2.60;93110.00;;;;7372747;19;20228;-81
2024/01/06 10:19:49;;;;;;;0.90;0.90;;;;;2.30;93104.00;;;;7369745;19;20481;-81
2024/01/06 10:22:25;;;;;;;0.80;0.80;;;;;2.50;93099.00;;;;7368473;19;20158;-81
2024/01/06 10:25:00;;;;;;;0.57;0.57;;;;;2.50;93110.00;;;;7369570;19;20187;-80
2024/01/06 10:27:37;;;;;;;1.07;0.97;;;;;2.60;93108.00;;;;7370312;19;20152;-82
2024/01/06 10:30:14;;;;;;;1.23;1.13;;;;;2.50;93107.00;;;;7377987;19;20160;-81
2024/01/06 10:32:42;;;;;;;2.33;1.40;;;;;2.40;93113.00;;;;7376742;19;20169;-81
2024/01/06 10:35:18;;;;;;;1.27;1.17;;;;;2.50;93110.00;;;;7378200;19;20236;-83
2024/01/06 10:37:49;;;;;;;1.53;1.43;;;;;2.60;93112.00;;;;7376663;19;20882;-80
2024/01/06 10:40:23;;;;;;;1.87;1.50;;;;;2.70;93043.00;;;;7376379;19;20148;-82
2024/01/06 10:43:07;;;;;;;12.30;5.17;;;;;2.50;93117.00;;;;7374352;19;20241;-82
2024/01/06 10:45:45;;;;;;;1.60;1.40;;;;;2.40;93124.00;;;;7374296;19;20231;-81
2024/01/06 10:48:22;;;;;;;2.47;1.57;;;;;2.00;93128.00;;;;7378150;19;20707;-82
2024/01/06 10:50:59;;;;;;;1.90;1.40;;;;;2.10;93118.00;;;;7379986;19;20162;-83
2024/01/06 10:53:40;;;;;;;3.07;1.83;;;;;2.40;93117.00;;;;7379940;19;20155;-82
2024/01/06 10:56:12;;;;;;;1.50;1.30;;;;;2.40;93114.00;;;;7387365;19;20148;-84
2024/01/06 10:58:50;;;;;;;1.50;1.40;;;;;2.20;93114.00;;;;7393467;19;20140;-83
2024/01/06 11:01:24;;;;;;;1.50;1.40;;;;;2.30;93117.00;;;;7395087;19;20488;-83
2024/01/06 11:04:00;;;;;;;5.93;4.57;;;;;2.70;93111.00;;;;7393042;19;20139;-84
2024/01/06 11:06:28;;;;;;;1.60;1.50;;;;;2.70;93112.00;;;;7394072;19;20133;-81
2024/01/06 11:09:14;;;;;;;3.47;2.60;;;;;2.60;93104.00;;;;7395856;19;20133;-82
2024/01/06 11:11:57;;;;;;;2.97;1.63;;;;;2.50;93110.00;;;;7392802;19;20180;-81
2024/01/06 11:14:37;;;;;;;1.40;1.30;;;;;2.60;93115.00;;;;7392969;19;20149;-82
2024/01/06 11:17:05;;;;;;;1.60;1.50;;;;;2.50;93107.00;;;;7391572;19;20513;-84
2024/01/06 11:19:40;;;;;;;1.70;1.60;;;;;2.20;93103.00;;;;7393434;19;20141;-82
2024/01/06 11:22:27;;;;;;;1.90;1.37;;;;;2.10;93112.00;;;;7390970;19;20144;-79
2024/01/06 11:24:56;;;;;;;1.57;1.47;;;;;2.60;93111.00;;;;7393963;19;20505;-79
2024/01/06 11:27:31;;;;;;;1.80;1.70;;;;;2.50;93115.00;;;;7394118;19;20468;-79
2024/01/06 11:30:06;;;;;;;4.43;2.83;;;;;2.60;93114.00;;;;7392903;19;20184;-81
2024/01/06 11:32:42;;;;;;;2.10;1.90;;;;;2.70;93117.00;;;;7387096;19;20668;-78
2024/01/06 11:35:14;;;;;;;1.67;1.50;;;;;2.50;93110.00;;;;7386938;19;20576;-83
2024/01/06 11:37:49;;;;;;;2.20;2.00;;;;;2.60;93118.00;;;;7385757;19;20136;-81
2024/01/06 11:40:20;;;;;;;2.80;1.50;;;;;2.50;93112.00;;;;7386491;19;20156;-79
2024/01/06 11:42:59;;;;;;;1.93;1.63;;;;;2.50;93109.00;;;;7385728;19;20192;-81
2024/01/06 11:45:29;;;;;;;4.23;1.80;;;;;2.60;93098.00;;;;7388132;19;20132;-81
2024/01/06 11:48:08;;;;;;;3.10;1.80;;;;;2.50;93097.00;;;;7388718;19;20152;-81
2024/01/06 11:50:39;;;;;;;2.17;1.97;;;;;2.60;93091.00;;;;7387463;19;20153;-81
2024/01/06 11:53:15;;;;;;;3.20;2.30;;;;;2.70;93081.00;;;;7385676;19;20477;-82
2024/01/06 11:55:52;;;;;;;2.57;2.33;;;;;2.70;93088.00;;;;7386824;19;20160;-79
2024/01/06 11:58:20;;;;;;;3.60;2.40;;;;;2.70;93086.00;;;;7388674;19;20459;-81
2024/01/06 12:00:57;;;;;;;4.17;2.27;;;;;2.70;93084.00;;;;7386811;19;20160;-80
2024/01/06 12:03:32;;;;;;;6.67;2.63;;;;;2.70;93078.00;;;;7386301;19;20626;-80
2024/01/06 12:06:02;;;;;;;2.50;2.27;;;;;2.90;93085.00;;;;7386584;19;20628;-80
2024/01/06 12:08:37;;;;;;;2.60;2.40;;;;;2.80;93088.00;;;;7385411;19;20203;-81
2024/01/06 12:11:08;;;;;;;3.03;2.27;;;;;2.70;93083.00;;;;7385142;19;20153;-79
2024/01/06 12:13:48;;;;;;;5.50;2.20;;;;;2.50;93078.00;;;;7386219;19;20622;-79
2024/01/06 12:16:27;;;;;;;2.40;2.20;;;;;2.60;93080.00;;;;7386227;19;20156;-82
2024/01/06 12:18:56;;;;;;;2.20;2.00;;;;;2.90;93071.00;;;;7383126;19;20144;-80
2024/01/06 12:21:33;;;;;;;3.23;2.27;;;;;2.80;93079.00;;;;7386851;19;20628;-80
2024/01/06 12:24:18;;;;;;;2.07;1.87;;;;;2.80;93076.00;;;;7387134;19;20137;-80
2024/01/06 12:26:51;;;;;;;2.10;1.90;;;;;2.50;93077.00;;;;7386279;19;20145;-79
2024/01/06 12:29:31;;;;;;;2.20;2.00;;;;;2.80;93076.00;;;;7385644;19;20148;-80
2024/01/06 12:32:06;;;;;;;2.13;1.93;;;;;2.90;93070.00;;;;7385651;19;20144;-82
2024/01/06 12:34:35;;;;;;;2.53;2.13;;;;;3.00;93068.00;;;;7388129;19;20148;-82
2024/01/06 12:37:10;;;;;;;2.27;2.07;;;;;2.50;93066.00;;;;7387167;19;20136;-81
2024/01/06 12:39:46;;;;;;;2.13;1.93;;;;;2.40;93072.00;;;;7387206;19;20161;-82
2024/01/06 12:42:23;;;;;;;2.20;2.00;;;;;2.60;93070.00;;;;7385417;19;20514;-82
2024/01/06 12:44:51;;;;;;;2.00;1.87;;;;;2.50;93065.00;;;;7387085;19;20577;-81
2024/01/06 12:47:26;;;;;;;2.17;1.97;;;;;2.40;93074.00;;;;7384576;19;20224;-82
2024/01/06 12:49:54;;;;;;;1.80;1.70;;;;;2.30;93074.00;;;;7384267;19;20125;-81
2024/01/06 12:52:28;;;;;;;1.83;1.73;;;;;2.50;93074.00;;;;7386426;19;20148;-81
2024/01/06 12:55:03;;;;;;;1.97;1.73;;;;;2.50;93072.00;;;;7385913;19;20862;-81
2024/01/06 12:57:38;;;;;;;1.70;1.60;;;;;2.40;93070.00;;;;7387018;19;20196;-82